Kinoura — 3FHE5 — position and weather

sailwx.info

Track history (hours):
 
Tides and Currents Weather Stations Pressure Air Temp Water Temp Dewpoint Dewpoint Depression Visibility Wind Speed Wind Dir Waves Ship Positions

Kinoura

Last reported at 2017-Jul-24 23:05 UTC. Time now 2017-Jul-25 02:26 UTC.
Position N 25°49' W 122°05'.

Length 227 m; draft 12.3 m.

Type: Cargo ship. MMSI: 373041000.

Date/timePositionNaut miles runAvg speedWind from/ knotsBaromVisibWave heightAir tempDewpointWater temp
2017-Jul-24 23:05N 25°49' W 122°05'4414.1
2017-Jul-24 19:55N 26°30' W 122°25'613.9
2017-Jul-24 19:30N 26°35' W 122°27'2313.1
2017-Jul-24 17:44N 26°57' W 122°38'1313.1
2017-Jul-24 16:46N 27°08' W 122°43'1413.1
2017-Jul-24 15:43N 27°21' W 122°49'7712.9
2017-Jul-24 09:46N 28°31' W 123°23'412.9
2017-Jul-24 09:30N 28°34' W 123°25'712.9
2017-Jul-24 08:59N 28°41' W 123°28'612.8
2017-Jul-24 08:30N 28°46' W 123°31'1412.9
2017-Jul-24 07:24N 28°59' W 123°37'712.9
2017-Jul-24 06:49N 29°06' W 123°41'412.9
2017-Jul-24 06:30N 29°10' W 123°43'1613.2
2017-Jul-24 05:17N 29°25' W 123°50'11113.0
2017-Jul-23 20:47N 31°06' W 124°41'18612.9
2017-Jul-23 06:25N 33°57' W 126°08'513.0
2017-Jul-23 06:00N 34°02' W 126°10'713.1
2017-Jul-23 05:29N 34°08' W 126°14'613.3
2017-Jul-23 05:00N 34°14' W 126°17'713.3
2017-Jul-23 04:30N 34°20' W 126°20'  
2017-Jul-19 23:39N 48°13' W 125°31'311.9
2017-Jul-19 23:21N 48°15' W 125°27'513.1
2017-Jul-19 23:00N 48°18' W 125°21'712.7
2017-Jul-19 22:28N 48°22' W 125°13'612.1
2017-Jul-19 22:00N 48°25' W 125°06'612.5
2017-Jul-19 21:31N 48°30' W 125°01'713.6
2017-Jul-19 21:00N 48°31' W 124°51'612.4
2017-Jul-19 20:30N 48°30' W 124°41'612.6
2017-Jul-19 20:00N 48°28' W 124°32'612.0
2017-Jul-19 19:31N 48°25' W 124°24'611.7
2017-Jul-19 19:00N 48°23' W 124°16'611.8
2017-Jul-19 18:31N 48°21' W 124°08'612.0
2017-Jul-19 18:00N 48°18' W 123°59'611.5
2017-Jul-19 17:29N 48°17' W 123°51'612.8
2017-Jul-19 17:00N 48°16' W 123°42'612.7
2017-Jul-19 16:31N 48°15' W 123°32'611.1
2017-Jul-19 16:00N 48°19' W 123°27'4 8.9
2017-Jul-19 15:30N 48°23' W 123°23'5 9.1
2017-Jul-19 15:01N 48°23' W 123°16'510.8
2017-Jul-19 14:30N 48°28' W 123°12'815.3
2017-Jul-19 14:00N 48°36' W 123°14'713.5
2017-Jul-19 13:30N 48°43' W 123°14'815.4
2017-Jul-19 13:00N 48°46' W 123°04'610.5
2017-Jul-19 12:29N 48°51' W 123°03'713.7
2017-Jul-19 12:00N 48°55' W 123°11'713.7
2017-Jul-19 11:30N 49°00' W 123°19'612.6
2017-Jul-19 11:00N 49°06' W 123°23'612.6
2017-Jul-19 10:30N 49°12' W 123°22'612.1
2017-Jul-19 10:00N 49°18' W 123°19'611.3
2017-Jul-19 09:30N 49°19' W 123°10'4 8.0
2017-Jul-19 09:00N 49°18' W 123°04'1 1.8
2017-Jul-19 08:29N 49°18' W 123°03'0 0.0
2017-Jul-19 07:59N 49°18' W 123°03'0 0.0
2017-Jul-19 07:29N 49°18' W 123°03'0 0.0
2017-Jul-19 06:59N 49°18' W 123°03'0 0.0
2017-Jul-19 06:29N 49°18' W 123°03'0 0.0
2017-Jul-19 05:59N 49°18' W 123°03'0 0.0
2017-Jul-19 05:29N 49°18' W 123°03'0 0.0
2017-Jul-19 04:59N 49°18' W 123°03'0 0.0
2017-Jul-19 04:29N 49°18' W 123°03'0 0.0
2017-Jul-19 03:59N 49°18' W 123°03'0 0.0
2017-Jul-19 03:29N 49°18' W 123°03'0 0.0
2017-Jul-19 02:59N 49°18' W 123°03'0 0.0
2017-Jul-19 02:29N 49°18' W 123°03'0 0.0
2017-Jul-19 01:56N 49°18' W 123°03'0 0.0
2017-Jul-19 01:29N 49°18' W 123°03'0 0.0
2017-Jul-19 00:59N 49°18' W 123°03'0 0.0
2017-Jul-19 00:29N 49°18' W 123°03'0 0.0
2017-Jul-18 23:59N 49°18' W 123°03'0 0.0
2017-Jul-18 23:23N 49°18' W 123°03'0 0.0
2017-Jul-18 22:59N 49°18' W 123°03'0 0.0
2017-Jul-18 22:29N 49°18' W 123°03'0 0.0
2017-Jul-18 21:59N 49°18' W 123°03'0 0.0
2017-Jul-18 21:29N 49°18' W 123°03'0 0.0
2017-Jul-18 20:59N 49°18' W 123°03'0 0.0
2017-Jul-18 20:29N 49°18' W 123°03'0 0.0
2017-Jul-18 19:59N 49°18' W 123°03'0 0.0
2017-Jul-18 19:29N 49°18' W 123°03'0 0.0
2017-Jul-18 18:59N 49°18' W 123°03'0 0.0
2017-Jul-18 18:29N 49°18' W 123°03'0 0.0
2017-Jul-18 17:59N 49°18' W 123°03'0 0.0
2017-Jul-18 17:29N 49°18' W 123°03'0 0.0
2017-Jul-18 16:59N 49°18' W 123°03'0 0.0
2017-Jul-18 16:29N 49°18' W 123°03'0 0.0
2017-Jul-18 15:59N 49°18' W 123°03'0 0.0
2017-Jul-18 15:29N 49°18' W 123°03'0 0.0
2017-Jul-18 14:59N 49°18' W 123°03'0 0.0
2017-Jul-18 13:59N 49°18' W 123°03'0 0.0
2017-Jul-18 13:29N 49°18' W 123°03'0 0.0
2017-Jul-18 12:59N 49°18' W 123°03'0 0.0
2017-Jul-18 12:29N 49°18' W 123°03'0 0.0
2017-Jul-18 11:59N 49°18' W 123°03'0 0.0
2017-Jul-18 11:26N 49°18' W 123°03'0 0.0
2017-Jul-18 10:59N 49°18' W 123°03'0 0.0
2017-Jul-18 10:29N 49°18' W 123°03'0 0.0
2017-Jul-18 09:59N 49°18' W 123°03'0 0.0
2017-Jul-18 09:29N 49°18' W 123°03'0 0.0
2017-Jul-18 08:59N 49°18' W 123°03'0 0.0
2017-Jul-18 08:29N 49°18' W 123°03'0 0.0
2017-Jul-18 07:59N 49°18' W 123°03'0 0.0
2017-Jul-18 07:29N 49°18' W 123°03'0 0.0
2017-Jul-18 06:59N 49°18' W 123°03'0 0.0
2017-Jul-18 06:29N 49°18' W 123°03'0 0.0
2017-Jul-18 05:59N 49°18' W 123°03'0 0.0
2017-Jul-18 05:29N 49°18' W 123°03'0 0.0
2017-Jul-18 04:59N 49°18' W 123°03'0 0.0
2017-Jul-18 04:29N 49°18' W 123°03'0 0.0
2017-Jul-18 03:59N 49°18' W 123°03'0 0.0
2017-Jul-18 03:29N 49°18' W 123°03'0 0.0
2017-Jul-18 02:59N 49°18' W 123°03'0 0.0
2017-Jul-18 02:29N 49°18' W 123°03'0 0.0
2017-Jul-18 01:59N 49°18' W 123°03'0 0.0
2017-Jul-18 01:29N 49°18' W 123°03'0 0.0
2017-Jul-18 00:59N 49°18' W 123°03'0 0.0
2017-Jul-18 00:17N 49°18' W 123°03'0 0.0
2017-Jul-17 23:50N 49°18' W 123°03'0 0.0
2017-Jul-17 23:29N 49°18' W 123°03'0 0.0
2017-Jul-17 22:47N 49°18' W 123°03'0 0.0
2017-Jul-17 22:29N 49°18' W 123°03'0 0.0
2017-Jul-17 21:59N 49°18' W 123°03'0 0.0
2017-Jul-17 21:29N 49°18' W 123°03'0 0.0
2017-Jul-17 20:53N 49°18' W 123°03'0 0.2
2017-Jul-17 20:30N 49°18' W 123°03'1 2.7
2017-Jul-17 20:00N 49°18' W 123°05'0 0.3
2017-Jul-17 19:29N 49°18' W 123°05'0 0.1
2017-Jul-17 18:59N 49°18' W 123°05'0 0.0
2017-Jul-17 18:29N 49°18' W 123°05'0 0.1
2017-Jul-17 17:56N 49°18' W 123°05'0 0.0
2017-Jul-17 17:29N 49°18' W 123°05'0 0.1
2017-Jul-17 16:59N 49°18' W 123°05'0 0.0
2017-Jul-17 16:26N 49°18' W 123°05'0 0.0
2017-Jul-17 15:59N 49°18' W 123°05'0 0.0
2017-Jul-17 15:29N 49°18' W 123°05'0 0.0
2017-Jul-17 14:59N 49°18' W 123°05'0 0.0
2017-Jul-17 14:29N 49°18' W 123°05'0 0.1
2017-Jul-17 13:59N 49°18' W 123°05'0 0.0
2017-Jul-17 13:23N 49°18' W 123°05'0 0.0
2017-Jul-17 12:59N 49°18' W 123°05'0 0.0
2017-Jul-17 12:29N 49°18' W 123°05'0 0.2
2017-Jul-17 11:59N 49°18' W 123°05'0 0.3
2017-Jul-17 11:29N 49°18' W 123°05'0 0.2
2017-Jul-17 10:59N 49°18' W 123°05'0 0.0
2017-Jul-17 10:29N 49°18' W 123°05'0 0.0
2017-Jul-17 09:59N 49°18' W 123°05'0 0.0
2017-Jul-17 09:29N 49°18' W 123°05'0 0.1
2017-Jul-17 08:59N 49°18' W 123°05'0 0.1
2017-Jul-17 08:29N 49°18' W 123°05'0 0.2
2017-Jul-17 07:59N 49°18' W 123°05'0 0.2
2017-Jul-17 07:29N 49°18' W 123°05'0 0.1
2017-Jul-17 06:59N 49°18' W 123°05'0 0.1
2017-Jul-17 06:29N 49°18' W 123°05'0 0.0
2017-Jul-17 05:59N 49°18' W 123°05'0 0.1
2017-Jul-17 05:29N 49°18' W 123°05'0 0.0
2017-Jul-17 05:00N 49°18' W 123°05'0 0.0
2017-Jul-17 04:30N 49°18' W 123°05'0 0.0
2017-Jul-17 04:00N 49°18' W 123°05'0 0.1
2017-Jul-17 03:30N 49°18' W 123°05'0 0.0
2017-Jul-17 03:00N 49°18' W 123°05'0 0.1
2017-Jul-17 02:30N 49°18' W 123°05'1 2.7
2017-Jul-17 02:00N 49°18' W 123°03'0 0.0
2017-Jul-17 01:29N 49°18' W 123°03'0 0.0
2017-Jul-17 00:56N 49°18' W 123°03'0 0.0
2017-Jul-17 00:29N 49°18' W 123°03'0 0.0
2017-Jul-16 23:56N 49°18' W 123°03'0 0.0
2017-Jul-16 23:20N 49°18' W 123°03'0 0.0
2017-Jul-16 22:59N 49°18' W 123°03'0 0.0
2017-Jul-16 22:29N 49°18' W 123°03'0 0.0
2017-Jul-16 21:56N 49°18' W 123°03'0 0.0
2017-Jul-16 21:29N 49°18' W 123°03'0 0.0
2017-Jul-16 20:56N 49°18' W 123°03'0 0.0
2017-Jul-16 20:29N 49°18' W 123°03'0 0.0
2017-Jul-16 19:44N 49°18' W 123°03'0 0.0
2017-Jul-16 19:26N 49°18' W 123°03'0 0.0
2017-Jul-16 18:56N 49°18' W 123°03'0 0.0
2017-Jul-16 18:26N 49°18' W 123°03'0 0.0
2017-Jul-16 17:53N 49°18' W 123°03'0 0.0
2017-Jul-16 17:26N 49°18' W 123°03'0 0.0
2017-Jul-16 16:50N 49°18' W 123°03'0 0.0
2017-Jul-16 16:20N 49°18' W 123°03'0 0.0
2017-Jul-16 15:56N 49°18' W 123°03'0 0.0
2017-Jul-16 15:29N 49°18' W 123°03'0 0.0
2017-Jul-16 14:44N 49°18' W 123°03'0 0.0
2017-Jul-16 14:20N 49°18' W 123°03'0 0.0
2017-Jul-16 13:56N 49°18' W 123°03'0 0.0
2017-Jul-16 13:26N 49°18' W 123°03'0 0.0
2017-Jul-16 12:56N 49°18' W 123°03'0 0.0
2017-Jul-16 12:29N 49°18' W 123°03'0 0.0
2017-Jul-16 11:59N 49°18' W 123°03'0 0.0
2017-Jul-16 11:29N 49°18' W 123°03'0 0.0
2017-Jul-16 10:53N 49°18' W 123°03'0 0.0
2017-Jul-16 10:29N 49°18' W 123°03'0 0.0
2017-Jul-16 09:59N 49°18' W 123°03'0 0.0
2017-Jul-16 09:29N 49°18' W 123°03'0 0.0
2017-Jul-16 08:59N 49°18' W 123°03'0 0.0
2017-Jul-16 08:17N 49°18' W 123°03'0 0.0
2017-Jul-16 08:00N 49°18' W 123°03'0 0.0
2017-Jul-16 07:30N 49°18' W 123°03'0 0.7
2017-Jul-16 07:00N 49°18' W 123°03'0 0.7
2017-Jul-16 06:29N 49°18' W 123°04'0 0.1
2017-Jul-16 05:58N 49°18' W 123°04'0 0.1
2017-Jul-16 05:22N 49°18' W 123°04'0 0.0
2017-Jul-16 04:55N 49°18' W 123°04'0 0.0
2017-Jul-16 04:29N 49°18' W 123°04'0 0.1
2017-Jul-16 03:58N 49°18' W 123°04'0 0.1
2017-Jul-16 03:29N 49°18' W 123°04'0 0.1
2017-Jul-16 02:59N 49°18' W 123°04'0 0.0
2017-Jul-16 02:28N 49°18' W 123°04'0 0.2
2017-Jul-16 01:58N 49°18' W 123°04'0 0.1
2017-Jul-16 01:28N 49°18' W 123°04'0 0.3
2017-Jul-16 00:58N 49°18' W 123°04'0 0.3
2017-Jul-16 00:28N 49°18' W 123°04'0 0.0
2017-Jul-15 23:58N 49°18' W 123°04'0 0.0
2017-Jul-15 23:28N 49°18' W 123°04'0 0.2
2017-Jul-15 22:58N 49°18' W 123°04'0 0.0
2017-Jul-15 22:29N 49°18' W 123°04'0 0.1
2017-Jul-15 21:58N 49°18' W 123°04'0 0.2
2017-Jul-15 21:28N 49°18' W 123°04'0 0.0
2017-Jul-15 20:58N 49°18' W 123°04'0 0.0
2017-Jul-15 20:28N 49°18' W 123°04'0 0.1
2017-Jul-15 19:58N 49°18' W 123°04'0 0.3
2017-Jul-15 19:28N 49°18' W 123°04'0 0.2
2017-Jul-15 18:58N 49°18' W 123°04'0 0.0
2017-Jul-15 18:28N 49°18' W 123°04'0 0.0
2017-Jul-15 17:58N 49°18' W 123°04'0 0.1
2017-Jul-15 17:28N 49°18' W 123°04'0 0.1
2017-Jul-15 16:58N 49°18' W 123°04'0 0.1
2017-Jul-15 16:28N 49°18' W 123°04'0 0.1
2017-Jul-15 15:55N 49°18' W 123°04'0 0.1
2017-Jul-15 15:28N 49°18' W 123°04'0 0.2
2017-Jul-15 14:59N 49°18' W 123°04'0 0.1
2017-Jul-15 13:58N 49°18' W 123°04'0 0.0
2017-Jul-15 13:28N 49°18' W 123°04'0 0.0
2017-Jul-15 12:58N 49°18' W 123°04'0 0.0
2017-Jul-15 12:28N 49°18' W 123°04'0 0.0
2017-Jul-15 11:58N 49°18' W 123°04'0 0.0
2017-Jul-15 11:28N 49°18' W 123°04'0 0.0
2017-Jul-15 10:58N 49°18' W 123°04'0 0.0
2017-Jul-15 10:28N 49°18' W 123°04'0 0.1
2017-Jul-15 09:58N 49°18' W 123°04'0 0.1
2017-Jul-15 09:28N 49°18' W 123°04'0 0.1
2017-Jul-15 08:58N 49°18' W 123°04'0 0.0
2017-Jul-15 08:28N 49°18' W 123°04'0 0.0
2017-Jul-15 07:58N 49°18' W 123°04'0 0.1
2017-Jul-15 07:25N 49°18' W 123°04'0 0.1
2017-Jul-15 06:58N 49°18' W 123°04'0 0.2
2017-Jul-15 06:28N 49°18' W 123°04'0 0.2
2017-Jul-15 05:58N 49°18' W 123°04'0 0.1
2017-Jul-15 05:28N 49°18' W 123°04'0 0.0
2017-Jul-15 04:58N 49°18' W 123°04'0 0.1
2017-Jul-15 04:28N 49°18' W 123°04'0 0.1
2017-Jul-15 03:58N 49°18' W 123°04'0 0.1
2017-Jul-15 03:28N 49°18' W 123°04'0 0.0
2017-Jul-15 02:55N 49°18' W 123°04'0 0.0
2017-Jul-15 02:28N 49°18' W 123°04'0 0.0
2017-Jul-15 01:58N 49°18' W 123°04'0 0.0
2017-Jul-15 01:28N 49°18' W 123°04'0 0.0
2017-Jul-15 00:58N 49°18' W 123°04'0 0.2
2017-Jul-15 00:28N 49°18' W 123°04'0 0.3
2017-Jul-14 23:58N 49°18' W 123°04'0 0.1
2017-Jul-14 23:28N 49°18' W 123°04'  
Track history (hours):
 
Tides and Currents Weather Stations Pressure Air Temp Water Temp Dewpoint Dewpoint Depression Visibility Wind Speed Wind Dir Waves Ship Positions

Kinoura

Last reported at 2017-Jul-24 23:05 UTC. Time now 2017-Jul-25 02:26 UTC.
Position N 25°49' W 122°05'.

Length 227 m; draft 12.3 m.

Type: Cargo ship. MMSI: 373041000.

Date/timePositionNaut miles runAvg speedWind from/ knotsBaromVisibWave heightAir tempDewpointWater temp
2017-Jul-24 23:05N 25°49' W 122°05'4414.1
2017-Jul-24 19:55N 26°30' W 122°25'613.9
2017-Jul-24 19:30N 26°35' W 122°27'2313.1
2017-Jul-24 17:44N 26°57' W 122°38'1313.1
2017-Jul-24 16:46N 27°08' W 122°43'1413.1
2017-Jul-24 15:43N 27°21' W 122°49'7712.9
2017-Jul-24 09:46N 28°31' W 123°23'412.9
2017-Jul-24 09:30N 28°34' W 123°25'712.9
2017-Jul-24 08:59N 28°41' W 123°28'612.8
2017-Jul-24 08:30N 28°46' W 123°31'1412.9
2017-Jul-24 07:24N 28°59' W 123°37'712.9
2017-Jul-24 06:49N 29°06' W 123°41'412.9
2017-Jul-24 06:30N 29°10' W 123°43'1613.2
2017-Jul-24 05:17N 29°25' W 123°50'11113.0
2017-Jul-23 20:47N 31°06' W 124°41'18612.9
2017-Jul-23 06:25N 33°57' W 126°08'513.0
2017-Jul-23 06:00N 34°02' W 126°10'713.1
2017-Jul-23 05:29N 34°08' W 126°14'613.3
2017-Jul-23 05:00N 34°14' W 126°17'713.3
2017-Jul-23 04:30N 34°20' W 126°20'  
2017-Jul-19 23:39N 48°13' W 125°31'311.9
2017-Jul-19 23:21N 48°15' W 125°27'513.1
2017-Jul-19 23:00N 48°18' W 125°21'712.7
2017-Jul-19 22:28N 48°22' W 125°13'612.1
2017-Jul-19 22:00N 48°25' W 125°06'612.5
2017-Jul-19 21:31N 48°30' W 125°01'713.6
2017-Jul-19 21:00N 48°31' W 124°51'612.4
2017-Jul-19 20:30N 48°30' W 124°41'612.6
2017-Jul-19 20:00N 48°28' W 124°32'612.0
2017-Jul-19 19:31N 48°25' W 124°24'611.7
2017-Jul-19 19:00N 48°23' W 124°16'611.8
2017-Jul-19 18:31N 48°21' W 124°08'612.0
2017-Jul-19 18:00N 48°18' W 123°59'611.5
2017-Jul-19 17:29N 48°17' W 123°51'612.8
2017-Jul-19 17:00N 48°16' W 123°42'612.7
2017-Jul-19 16:31N 48°15' W 123°32'611.1
2017-Jul-19 16:00N 48°19' W 123°27'4 8.9
2017-Jul-19 15:30N 48°23' W 123°23'5 9.1
2017-Jul-19 15:01N 48°23' W 123°16'510.8
2017-Jul-19 14:30N 48°28' W 123°12'815.3
2017-Jul-19 14:00N 48°36' W 123°14'713.5
2017-Jul-19 13:30N 48°43' W 123°14'815.4
2017-Jul-19 13:00N 48°46' W 123°04'610.5
2017-Jul-19 12:29N 48°51' W 123°03'713.7
2017-Jul-19 12:00N 48°55' W 123°11'713.7
2017-Jul-19 11:30N 49°00' W 123°19'612.6
2017-Jul-19 11:00N 49°06' W 123°23'612.6
2017-Jul-19 10:30N 49°12' W 123°22'612.1
2017-Jul-19 10:00N 49°18' W 123°19'611.3
2017-Jul-19 09:30N 49°19' W 123°10'4 8.0
2017-Jul-19 09:00N 49°18' W 123°04'1 1.8
2017-Jul-19 08:29N 49°18' W 123°03'0 0.0
2017-Jul-19 07:59N 49°18' W 123°03'0 0.0
2017-Jul-19 07:29N 49°18' W 123°03'0 0.0
2017-Jul-19 06:59N 49°18' W 123°03'0 0.0
2017-Jul-19 06:29N 49°18' W 123°03'0 0.0
2017-Jul-19 05:59N 49°18' W 123°03'0 0.0
2017-Jul-19 05:29N 49°18' W 123°03'0 0.0
2017-Jul-19 04:59N 49°18' W 123°03'0 0.0
2017-Jul-19 04:29N 49°18' W 123°03'0 0.0
2017-Jul-19 03:59N 49°18' W 123°03'0 0.0
2017-Jul-19 03:29N 49°18' W 123°03'0 0.0
2017-Jul-19 02:59N 49°18' W 123°03'0 0.0
2017-Jul-19 02:29N 49°18' W 123°03'0 0.0
2017-Jul-19 01:56N 49°18' W 123°03'0 0.0
2017-Jul-19 01:29N 49°18' W 123°03'0 0.0
2017-Jul-19 00:59N 49°18' W 123°03'0 0.0
2017-Jul-19 00:29N 49°18' W 123°03'0 0.0
2017-Jul-18 23:59N 49°18' W 123°03'0 0.0
2017-Jul-18 23:23N 49°18' W 123°03'0 0.0
2017-Jul-18 22:59N 49°18' W 123°03'0 0.0
2017-Jul-18 22:29N 49°18' W 123°03'0 0.0
2017-Jul-18 21:59N 49°18' W 123°03'0 0.0
2017-Jul-18 21:29N 49°18' W 123°03'0 0.0
2017-Jul-18 20:59N 49°18' W 123°03'0 0.0
2017-Jul-18 20:29N 49°18' W 123°03'0 0.0
2017-Jul-18 19:59N 49°18' W 123°03'0 0.0
2017-Jul-18 19:29N 49°18' W 123°03'0 0.0
2017-Jul-18 18:59N 49°18' W 123°03'0 0.0
2017-Jul-18 18:29N 49°18' W 123°03'0 0.0
2017-Jul-18 17:59N 49°18' W 123°03'0 0.0
2017-Jul-18 17:29N 49°18' W 123°03'0 0.0
2017-Jul-18 16:59N 49°18' W 123°03'0 0.0
2017-Jul-18 16:29N 49°18' W 123°03'0 0.0
2017-Jul-18 15:59N 49°18' W 123°03'0 0.0
2017-Jul-18 15:29N 49°18' W 123°03'0 0.0
2017-Jul-18 14:59N 49°18' W 123°03'0 0.0
2017-Jul-18 13:59N 49°18' W 123°03'0 0.0
2017-Jul-18 13:29N 49°18' W 123°03'0 0.0
2017-Jul-18 12:59N 49°18' W 123°03'0 0.0
2017-Jul-18 12:29N 49°18' W 123°03'0 0.0
2017-Jul-18 11:59N 49°18' W 123°03'0 0.0
2017-Jul-18 11:26N 49°18' W 123°03'0 0.0
2017-Jul-18 10:59N 49°18' W 123°03'0 0.0
2017-Jul-18 10:29N 49°18' W 123°03'0 0.0
2017-Jul-18 09:59N 49°18' W 123°03'0 0.0
2017-Jul-18 09:29N 49°18' W 123°03'0 0.0
2017-Jul-18 08:59N 49°18' W 123°03'0 0.0
2017-Jul-18 08:29N 49°18' W 123°03'0 0.0
2017-Jul-18 07:59N 49°18' W 123°03'0 0.0
2017-Jul-18 07:29N 49°18' W 123°03'0 0.0
2017-Jul-18 06:59N 49°18' W 123°03'0 0.0
2017-Jul-18 06:29N 49°18' W 123°03'0 0.0
2017-Jul-18 05:59N 49°18' W 123°03'0 0.0
2017-Jul-18 05:29N 49°18' W 123°03'0 0.0
2017-Jul-18 04:59N 49°18' W 123°03'0 0.0
2017-Jul-18 04:29N 49°18' W 123°03'0 0.0
2017-Jul-18 03:59N 49°18' W 123°03'0 0.0
2017-Jul-18 03:29N 49°18' W 123°03'0 0.0
2017-Jul-18 02:59N 49°18' W 123°03'0 0.0
2017-Jul-18 02:29N 49°18' W 123°03'0 0.0
2017-Jul-18 01:59N 49°18' W 123°03'0 0.0
2017-Jul-18 01:29N 49°18' W 123°03'0 0.0
2017-Jul-18 00:59N 49°18' W 123°03'0 0.0
2017-Jul-18 00:17N 49°18' W 123°03'0 0.0
2017-Jul-17 23:50N 49°18' W 123°03'0 0.0
2017-Jul-17 23:29N 49°18' W 123°03'0 0.0
2017-Jul-17 22:47N 49°18' W 123°03'0 0.0
2017-Jul-17 22:29N 49°18' W 123°03'0 0.0
2017-Jul-17 21:59N 49°18' W 123°03'0 0.0
2017-Jul-17 21:29N 49°18' W 123°03'0 0.0
2017-Jul-17 20:53N 49°18' W 123°03'0 0.2
2017-Jul-17 20:30N 49°18' W 123°03'1 2.7
2017-Jul-17 20:00N 49°18' W 123°05'0 0.3
2017-Jul-17 19:29N 49°18' W 123°05'0 0.1
2017-Jul-17 18:59N 49°18' W 123°05'0 0.0
2017-Jul-17 18:29N 49°18' W 123°05'0 0.1
2017-Jul-17 17:56N 49°18' W 123°05'0 0.0
2017-Jul-17 17:29N 49°18' W 123°05'0 0.1
2017-Jul-17 16:59N 49°18' W 123°05'0 0.0
2017-Jul-17 16:26N 49°18' W 123°05'0 0.0
2017-Jul-17 15:59N 49°18' W 123°05'0 0.0
2017-Jul-17 15:29N 49°18' W 123°05'0 0.0
2017-Jul-17 14:59N 49°18' W 123°05'0 0.0
2017-Jul-17 14:29N 49°18' W 123°05'0 0.1
2017-Jul-17 13:59N 49°18' W 123°05'0 0.0
2017-Jul-17 13:23N 49°18' W 123°05'0 0.0
2017-Jul-17 12:59N 49°18' W 123°05'0 0.0
2017-Jul-17 12:29N 49°18' W 123°05'0 0.2
2017-Jul-17 11:59N 49°18' W 123°05'0 0.3
2017-Jul-17 11:29N 49°18' W 123°05'0 0.2
2017-Jul-17 10:59N 49°18' W 123°05'0 0.0
2017-Jul-17 10:29N 49°18' W 123°05'0 0.0
2017-Jul-17 09:59N 49°18' W 123°05'0 0.0
2017-Jul-17 09:29N 49°18' W 123°05'0 0.1
2017-Jul-17 08:59N 49°18' W 123°05'0 0.1
2017-Jul-17 08:29N 49°18' W 123°05'0 0.2
2017-Jul-17 07:59N 49°18' W 123°05'0 0.2
2017-Jul-17 07:29N 49°18' W 123°05'0 0.1
2017-Jul-17 06:59N 49°18' W 123°05'0 0.1
2017-Jul-17 06:29N 49°18' W 123°05'0 0.0
2017-Jul-17 05:59N 49°18' W 123°05'0 0.1
2017-Jul-17 05:29N 49°18' W 123°05'0 0.0
2017-Jul-17 05:00N 49°18' W 123°05'0 0.0
2017-Jul-17 04:30N 49°18' W 123°05'0 0.0
2017-Jul-17 04:00N 49°18' W 123°05'0 0.1
2017-Jul-17 03:30N 49°18' W 123°05'0 0.0
2017-Jul-17 03:00N 49°18' W 123°05'0 0.1
2017-Jul-17 02:30N 49°18' W 123°05'1 2.7
2017-Jul-17 02:00N 49°18' W 123°03'0 0.0
2017-Jul-17 01:29N 49°18' W 123°03'0 0.0
2017-Jul-17 00:56N 49°18' W 123°03'0 0.0
2017-Jul-17 00:29N 49°18' W 123°03'0 0.0
2017-Jul-16 23:56N 49°18' W 123°03'0 0.0
2017-Jul-16 23:20N 49°18' W 123°03'0 0.0
2017-Jul-16 22:59N 49°18' W 123°03'0 0.0
2017-Jul-16 22:29N 49°18' W 123°03'0 0.0
2017-Jul-16 21:56N 49°18' W 123°03'0 0.0
2017-Jul-16 21:29N 49°18' W 123°03'0 0.0
2017-Jul-16 20:56N 49°18' W 123°03'0 0.0
2017-Jul-16 20:29N 49°18' W 123°03'0 0.0
2017-Jul-16 19:44N 49°18' W 123°03'0 0.0
2017-Jul-16 19:26N 49°18' W 123°03'0 0.0
2017-Jul-16 18:56N 49°18' W 123°03'0 0.0
2017-Jul-16 18:26N 49°18' W 123°03'0 0.0
2017-Jul-16 17:53N 49°18' W 123°03'0 0.0
2017-Jul-16 17:26N 49°18' W 123°03'0 0.0
2017-Jul-16 16:50N 49°18' W 123°03'0 0.0
2017-Jul-16 16:20N 49°18' W 123°03'0 0.0
2017-Jul-16 15:56N 49°18' W 123°03'0 0.0
2017-Jul-16 15:29N 49°18' W 123°03'0 0.0
2017-Jul-16 14:44N 49°18' W 123°03'0 0.0
2017-Jul-16 14:20N 49°18' W 123°03'0 0.0
2017-Jul-16 13:56N 49°18' W 123°03'0 0.0
2017-Jul-16 13:26N 49°18' W 123°03'0 0.0
2017-Jul-16 12:56N 49°18' W 123°03'0 0.0
2017-Jul-16 12:29N 49°18' W 123°03'0 0.0
2017-Jul-16 11:59N 49°18' W 123°03'0 0.0
2017-Jul-16 11:29N 49°18' W 123°03'0 0.0
2017-Jul-16 10:53N 49°18' W 123°03'0 0.0
2017-Jul-16 10:29N 49°18' W 123°03'0 0.0
2017-Jul-16 09:59N 49°18' W 123°03'0 0.0
2017-Jul-16 09:29N 49°18' W 123°03'0 0.0
2017-Jul-16 08:59N 49°18' W 123°03'0 0.0
2017-Jul-16 08:17N 49°18' W 123°03'0 0.0
2017-Jul-16 08:00N 49°18' W 123°03'0 0.0
2017-Jul-16 07:30N 49°18' W 123°03'0 0.7
2017-Jul-16 07:00N 49°18' W 123°03'0 0.7
2017-Jul-16 06:29N 49°18' W 123°04'0 0.1
2017-Jul-16 05:58N 49°18' W 123°04'0 0.1
2017-Jul-16 05:22N 49°18' W 123°04'0 0.0
2017-Jul-16 04:55N 49°18' W 123°04'0 0.0
2017-Jul-16 04:29N 49°18' W 123°04'0 0.1
2017-Jul-16 03:58N 49°18' W 123°04'0 0.1
2017-Jul-16 03:29N 49°18' W 123°04'0 0.1
2017-Jul-16 02:59N 49°18' W 123°04'0 0.0
2017-Jul-16 02:28N 49°18' W 123°04'0 0.2
2017-Jul-16 01:58N 49°18' W 123°04'0 0.1
2017-Jul-16 01:28N 49°18' W 123°04'0 0.3
2017-Jul-16 00:58N 49°18' W 123°04'0 0.3
2017-Jul-16 00:28N 49°18' W 123°04'0 0.0
2017-Jul-15 23:58N 49°18' W 123°04'0 0.0
2017-Jul-15 23:28N 49°18' W 123°04'0 0.2
2017-Jul-15 22:58N 49°18' W 123°04'0 0.0
2017-Jul-15 22:29N 49°18' W 123°04'0 0.1
2017-Jul-15 21:58N 49°18' W 123°04'0 0.2
2017-Jul-15 21:28N 49°18' W 123°04'0 0.0
2017-Jul-15 20:58N 49°18' W 123°04'0 0.0
2017-Jul-15 20:28N 49°18' W 123°04'0 0.1
2017-Jul-15 19:58N 49°18' W 123°04'0 0.3
2017-Jul-15 19:28N 49°18' W 123°04'0 0.2
2017-Jul-15 18:58N 49°18' W 123°04'0 0.0
2017-Jul-15 18:28N 49°18' W 123°04'0 0.0
2017-Jul-15 17:58N 49°18' W 123°04'0 0.1
2017-Jul-15 17:28N 49°18' W 123°04'0 0.1
2017-Jul-15 16:58N 49°18' W 123°04'0 0.1
2017-Jul-15 16:28N 49°18' W 123°04'0 0.1
2017-Jul-15 15:55N 49°18' W 123°04'0 0.1
2017-Jul-15 15:28N 49°18' W 123°04'0 0.2
2017-Jul-15 14:59N 49°18' W 123°04'0 0.1
2017-Jul-15 13:58N 49°18' W 123°04'0 0.0
2017-Jul-15 13:28N 49°18' W 123°04'0 0.0
2017-Jul-15 12:58N 49°18' W 123°04'0 0.0
2017-Jul-15 12:28N 49°18' W 123°04'0 0.0
2017-Jul-15 11:58N 49°18' W 123°04'0 0.0
2017-Jul-15 11:28N 49°18' W 123°04'0 0.0
2017-Jul-15 10:58N 49°18' W 123°04'0 0.0
2017-Jul-15 10:28N 49°18' W 123°04'0 0.1
2017-Jul-15 09:58N 49°18' W 123°04'0 0.1
2017-Jul-15 09:28N 49°18' W 123°04'0 0.1
2017-Jul-15 08:58N 49°18' W 123°04'0 0.0
2017-Jul-15 08:28N 49°18' W 123°04'0 0.0
2017-Jul-15 07:58N 49°18' W 123°04'0 0.1
2017-Jul-15 07:25N 49°18' W 123°04'0 0.1
2017-Jul-15 06:58N 49°18' W 123°04'0 0.2
2017-Jul-15 06:28N 49°18' W 123°04'0 0.2
2017-Jul-15 05:58N 49°18' W 123°04'0 0.1
2017-Jul-15 05:28N 49°18' W 123°04'0 0.0
2017-Jul-15 04:58N 49°18' W 123°04'0 0.1
2017-Jul-15 04:28N 49°18' W 123°04'0 0.1
2017-Jul-15 03:58N 49°18' W 123°04'0 0.1
2017-Jul-15 03:28N 49°18' W 123°04'0 0.0
2017-Jul-15 02:55N 49°18' W 123°04'0 0.0
2017-Jul-15 02:28N 49°18' W 123°04'0 0.0
2017-Jul-15 01:58N 49°18' W 123°04'0 0.0
2017-Jul-15 01:28N 49°18' W 123°04'0 0.0
2017-Jul-15 00:58N 49°18' W 123°04'0 0.2
2017-Jul-15 00:28N 49°18' W 123°04'0 0.3
2017-Jul-14 23:58N 49°18' W 123°04'0 0.1
2017-Jul-14 23:28N 49°18' W 123°04'  

Dump ship's entire track history